sensor_id;sensor_type;location;lat;lon;timestamp;pressure;altitude;pressure_sealevel;temperature;humidity
60099;BME280;62818;49.394;8.686;2023-04-09T00:00:24;101150.53;;;9.68;71.15
60099;BME280;62818;49.394;8.686;2023-04-09T00:01:25;101144.31;;;9.78;71.59
60099;BME280;62818;49.394;8.686;2023-04-09T00:02:25;101151.94;;;9.63;71.63
60099;BME280;62818;49.394;8.686;2023-04-09T00:03:26;101154.06;;;9.77;70.63
60099;BME280;62818;49.394;8.686;2023-04-09T00:04:27;101151.59;;;9.93;70.47
60099;BME280;62818;49.394;8.686;2023-04-09T00:05:27;101150.91;;;9.91;69.93
60099;BME280;62818;49.394;8.686;2023-04-09T00:06:28;101150.91;;;9.56;71.73
60099;BME280;62818;49.394;8.686;2023-04-09T00:07:28;101140.00;;;9.59;72.68
60099;BME280;62818;49.394;8.686;2023-04-09T00:08:29;101146.06;;;9.69;72.19
60099;BME280;62818;49.394;8.686;2023-04-09T00:09:30;101145.97;;;9.79;71.35
60099;BME280;62818;49.394;8.686;2023-04-09T00:10:31;101144.44;;;9.58;71.86
60099;BME280;62818;49.394;8.686;2023-04-09T00:11:31;101142.56;;;9.51;72.38
60099;BME280;62818;49.394;8.686;2023-04-09T00:12:32;101135.09;;;9.46;72.54
60099;BME280;62818;49.394;8.686;2023-04-09T00:13:32;101143.66;;;9.58;72.56
60099;BME280;62818;49.394;8.686;2023-04-09T00:14:33;101140.00;;;9.59;72.32
60099;BME280;62818;49.394;8.686;2023-04-09T00:15:33;101139.47;;;9.55;72.40
60099;BME280;62818;49.394;8.686;2023-04-09T00:16:34;101143.88;;;9.64;72.46
60099;BME280;62818;49.394;8.686;2023-04-09T00:17:35;101141.66;;;9.95;72.54
60099;BME280;62818;49.394;8.686;2023-04-09T00:18:35;101148.63;;;9.79;71.68
60099;BME280;62818;49.394;8.686;2023-04-09T00:19:36;101148.25;;;9.91;70.78
60099;BME280;62818;49.394;8.686;2023-04-09T00:20:36;101144.09;;;9.71;70.88
60099;BME280;62818;49.394;8.686;2023-04-09T00:21:36;101140.16;;;9.75;71.22
60099;BME280;62818;49.394;8.686;2023-04-09T00:22:37;101139.25;;;9.84;71.97
60099;BME280;62818;49.394;8.686;2023-04-09T00:23:37;101143.72;;;9.84;71.38
60099;BME280;62818;49.394;8.686;2023-04-09T00:24:38;101146.41;;;9.56;72.13
60099;BME280;62818;49.394;8.686;2023-04-09T00:25:38;101144.22;;;9.87;72.51
60099;BME280;62818;49.394;8.686;2023-04-09T00:26:39;101145.75;;;9.72;71.56
60099;BME280;62818;49.394;8.686;2023-04-09T00:27:39;101138.59;;;9.64;72.38
60099;BME280;62818;49.394;8.686;2023-04-09T00:28:40;101140.56;;;9.62;72.95
60099;BME280;62818;49.394;8.686;2023-04-09T00:29:40;101144.78;;;9.55;72.93
60099;BME280;62818;49.394;8.686;2023-04-09T00:30:41;101137.34;;;9.59;73.18
60099;BME280;62818;49.394;8.686;2023-04-09T00:31:41;101141.50;;;9.44;74.02
60099;BME280;62818;49.394;8.686;2023-04-09T00:32:42;101146.34;;;9.66;73.18
60099;BME280;62818;49.394;8.686;2023-04-09T00:33:42;101141.44;;;9.71;72.65
60099;BME280;62818;49.394;8.686;2023-04-09T00:34:43;101145.97;;;9.79;73.03
60099;BME280;62818;49.394;8.686;2023-04-09T00:35:44;101142.66;;;9.77;72.40
60099;BME280;62818;49.394;8.686;2023-04-09T00:36:44;101147.25;;;9.92;72.20
60099;BME280;62818;49.394;8.686;2023-04-09T00:37:45;101136.84;;;9.73;72.25
60099;BME280;62818;49.394;8.686;2023-04-09T00:38:45;101145.28;;;9.59;72.83
60099;BME280;62818;49.394;8.686;2023-04-09T00:39:47;101136.97;;;9.54;72.74
60099;BME280;62818;49.394;8.686;2023-04-09T00:40:49;101135.03;;;9.56;73.96
60099;BME280;62818;49.394;8.686;2023-04-09T00:41:55;101140.31;;;9.56;73.75
60099;BME280;62818;49.394;8.686;2023-04-09T00:43:01;101134.88;;;9.57;73.65
60099;BME280;62818;49.394;8.686;2023-04-09T00:44:02;101130.78;;;9.63;73.86
60099;BME280;62818;49.394;8.686;2023-04-09T00:45:04;101136.28;;;9.69;73.05
60099;BME280;62818;49.394;8.686;2023-04-09T00:46:05;101137.19;;;9.78;73.13
60099;BME280;62818;49.394;8.686;2023-04-09T00:47:06;101129.56;;;9.75;73.69
60099;BME280;62818;49.394;8.686;2023-04-09T00:48:06;101129.50;;;9.49;73.90
60099;BME280;62818;49.394;8.686;2023-04-09T00:49:07;101135.09;;;9.46;73.87
60099;BME280;62818;49.394;8.686;2023-04-09T00:50:08;101132.38;;;9.74;74.11
60099;BME280;62818;49.394;8.686;2023-04-09T00:51:09;101129.09;;;9.97;73.57
60099;BME280;62818;49.394;8.686;2023-04-09T00:52:09;101135.25;;;9.80;72.63
60099;BME280;62818;49.394;8.686;2023-04-09T00:53:11;101137.69;;;9.74;73.24
60099;BME280;62818;49.394;8.686;2023-04-09T00:54:12;101130.53;;;9.74;73.14
60099;BME280;62818;49.394;8.686;2023-04-09T00:55:12;101134.53;;;9.78;73.37
60099;BME280;62818;49.394;8.686;2023-04-09T00:56:14;101139.69;;;9.97;73.12
60099;BME280;62818;49.394;8.686;2023-04-09T00:57:17;101136.59;;;9.66;72.67
60099;BME280;62818;49.394;8.686;2023-04-09T00:58:18;101135.59;;;9.50;73.65
60099;BME280;62818;49.394;8.686;2023-04-09T00:59:18;101135.38;;;9.43;74.25
60099;BME280;62818;49.394;8.686;2023-04-09T01:00:19;101134.09;;;9.65;74.41
60099;BME280;62818;49.394;8.686;2023-04-09T01:01:19;101135.59;;;9.85;73.59
60099;BME280;62818;49.394;8.686;2023-04-09T01:02:20;101132.50;;;9.90;72.95
60099;BME280;62818;49.394;8.686;2023-04-09T01:03:21;101130.97;;;10.05;72.89
60099;BME280;62818;49.394;8.686;2023-04-09T01:04:22;101131.50;;;10.08;72.71
60099;BME280;62818;49.394;8.686;2023-04-09T01:05:30;101133.81;;;9.68;73.26
60099;BME280;62818;49.394;8.686;2023-04-09T01:06:50;101134.53;;;9.43;74.06
60099;BME280;62818;49.394;8.686;2023-04-09T01:09:27;101133.34;;;9.55;75.17
60099;BME280;62818;49.394;8.686;2023-04-09T01:10:37;101143.78;;;9.74;74.05
60099;BME280;62818;49.394;8.686;2023-04-09T01:15:43;101134.25;;;9.19;76.13
60099;BME280;62818;49.394;8.686;2023-04-09T01:16:59;101134.19;;;9.11;75.65
60099;BME280;62818;49.394;8.686;2023-04-09T01:20:05;101129.50;;;9.05;76.75
60099;BME280;62818;49.394;8.686;2023-04-09T01:21:12;101135.53;;;9.15;77.08
60099;BME280;62818;49.394;8.686;2023-04-09T01:26:57;101123.56;;;8.93;77.91
60099;BME280;62818;49.394;8.686;2023-04-09T01:29:33;101126.44;;;9.00;77.71
60099;BME280;62818;49.394;8.686;2023-04-09T01:30:39;101123.78;;;9.27;77.58
60099;BME280;62818;49.394;8.686;2023-04-09T01:31:47;101129.97;;;9.18;76.41
60099;BME280;62818;49.394;8.686;2023-04-09T01:32:49;101121.31;;;8.98;77.67
60099;BME280;62818;49.394;8.686;2023-04-09T01:33:53;101127.63;;;8.87;78.18
60099;BME280;62818;49.394;8.686;2023-04-09T01:34:54;101124.00;;;8.88;78.14
60099;BME280;62818;49.394;8.686;2023-04-09T01:35:56;101123.72;;;8.91;78.09
60099;BME280;62818;49.394;8.686;2023-04-09T01:37:01;101117.34;;;8.84;78.39
60099;BME280;62818;49.394;8.686;2023-04-09T01:38:03;101130.09;;;8.99;78.00
60099;BME280;62818;49.394;8.686;2023-04-09T01:39:05;101134.66;;;9.24;77.37
60099;BME280;62818;49.394;8.686;2023-04-09T01:40:07;101126.50;;;9.17;77.36
60099;BME280;62818;49.394;8.686;2023-04-09T01:41:11;101127.69;;;9.05;78.01
60099;BME280;62818;49.394;8.686;2023-04-09T01:42:16;101134.78;;;9.05;78.06
60099;BME280;62818;49.394;8.686;2023-04-09T01:43:17;101121.75;;;8.93;78.24
60099;BME280;62818;49.394;8.686;2023-04-09T01:44:19;101121.09;;;8.82;78.44
60099;BME280;62818;49.394;8.686;2023-04-09T01:45:21;101133.69;;;8.98;79.39
60099;BME280;62818;49.394;8.686;2023-04-09T01:46:22;101129.28;;;8.88;78.70
60099;BME280;62818;49.394;8.686;2023-04-09T01:47:25;101124.88;;;8.79;79.45
60099;BME280;62818;49.394;8.686;2023-04-09T01:48:28;101130.81;;;8.91;79.23
60099;BME280;62818;49.394;8.686;2023-04-09T01:49:30;101137.03;;;9.00;78.76
60099;BME280;62818;49.394;8.686;2023-04-09T01:50:32;101134.47;;;9.08;78.21
60099;BME280;62818;49.394;8.686;2023-04-09T01:51:33;101133.00;;;9.23;77.97
60099;BME280;62818;49.394;8.686;2023-04-09T01:52:34;101127.75;;;9.58;76.87
60099;BME280;62818;49.394;8.686;2023-04-09T01:53:35;101125.63;;;9.79;76.15
60099;BME280;62818;49.394;8.686;2023-04-09T01:54:35;101131.34;;;9.22;77.13
60099;BME280;62818;49.394;8.686;2023-04-09T01:55:36;101136.81;;;9.38;77.17
60099;BME280;62818;49.394;8.686;2023-04-09T01:56:44;101131.94;;;9.16;77.88
60099;BME280;62818;49.394;8.686;2023-04-09T01:57:46;101133.31;;;9.20;78.16
60099;BME280;62818;49.394;8.686;2023-04-09T01:58:47;101127.34;;;9.35;77.55
60099;BME280;62818;49.394;8.686;2023-04-09T01:59:47;101132.47;;;9.19;76.78
60099;BME280;62818;49.394;8.686;2023-04-09T02:00:48;101130.41;;;9.13;77.06
60099;BME280;62818;49.394;8.686;2023-04-09T02:01:53;101130.84;;;9.09;78.21
60099;BME280;62818;49.394;8.686;2023-04-09T02:03:07;101122.19;;;8.89;78.37
60099;BME280;62818;49.394;8.686;2023-04-09T02:04:22;101124.19;;;8.77;79.01
60099;BME280;62818;49.394;8.686;2023-04-09T02:05:30;101124.88;;;8.79;79.49
60099;BME280;62818;49.394;8.686;2023-04-09T02:06:59;101123.56;;;8.93;78.96
60099;BME280;62818;49.394;8.686;2023-04-09T02:08:18;101125.47;;;8.73;79.97
60099;BME280;62818;49.394;8.686;2023-04-09T02:09:23;101137.81;;;9.10;78.70
60099;BME280;62818;49.394;8.686;2023-04-09T02:10:29;101128.28;;;9.17;77.89
60099;BME280;62818;49.394;8.686;2023-04-09T02:11:33;101121.16;;;9.00;78.31
60099;BME280;62818;49.394;8.686;2023-04-09T02:12:37;101121.19;;;8.63;79.96
60099;BME280;62818;49.394;8.686;2023-04-09T02:13:43;101121.72;;;8.66;80.61
60099;BME280;62818;49.394;8.686;2023-04-09T02:14:45;101120.41;;;8.80;80.42
60099;BME280;62818;49.394;8.686;2023-04-09T02:15:50;101130.09;;;8.99;80.21
60099;BME280;62818;49.394;8.686;2023-04-09T02:16:52;101134.25;;;9.19;79.29
60099;BME280;62818;49.394;8.686;2023-04-09T02:17:52;101139.47;;;9.11;79.68
60099;BME280;62818;49.394;8.686;2023-04-09T02:18:55;101120.94;;;8.83;79.84
60099;BME280;62818;49.394;8.686;2023-04-09T02:19:56;101132.13;;;8.77;80.30
60099;BME280;62818;49.394;8.686;2023-04-09T02:20:57;101128.31;;;8.89;80.22
60099;BME280;62818;49.394;8.686;2023-04-09T02:21:58;101126.19;;;9.20;79.38
60099;BME280;62818;49.394;8.686;2023-04-09T02:22:59;101137.09;;;9.08;79.81
60099;BME280;62818;49.394;8.686;2023-04-09T02:23:59;101129.97;;;9.18;79.64
60099;BME280;62818;49.394;8.686;2023-04-09T02:24:59;101128.53;;;9.23;79.12
60099;BME280;62818;49.394;8.686;2023-04-09T02:26:00;101125.81;;;9.15;79.42
60099;BME280;62818;49.394;8.686;2023-04-09T02:27:01;101127.09;;;9.11;78.76
60099;BME280;62818;49.394;8.686;2023-04-09T02:28:03;101122.38;;;8.78;79.62
60099;BME280;62818;49.394;8.686;2023-04-09T02:29:03;101133.41;;;9.01;80.20
60099;BME280;62818;49.394;8.686;2023-04-09T02:30:04;101135.53;;;9.15;78.99
60099;BME280;62818;49.394;8.686;2023-04-09T02:31:05;101128.25;;;9.26;77.81
60099;BME280;62818;49.394;8.686;2023-04-09T02:32:06;101131.31;;;9.49;78.17
60099;BME280;62818;49.394;8.686;2023-04-09T02:33:07;101131.53;;;9.38;77.58
60099;BME280;62818;49.394;8.686;2023-04-09T02:34:07;101133.00;;;9.23;77.92
60099;BME280;62818;49.394;8.686;2023-04-09T02:35:08;101128.28;;;9.17;78.00
60099;BME280;62818;49.394;8.686;2023-04-09T02:36:12;101121.75;;;8.93;78.82
60099;BME280;62818;49.394;8.686;2023-04-09T02:37:13;101122.63;;;8.84;79.31
60099;BME280;62818;49.394;8.686;2023-04-09T02:38:13;101117.94;;;8.78;80.35
60099;BME280;62818;49.394;8.686;2023-04-09T02:39:15;101124.44;;;8.84;80.17
60099;BME280;62818;49.394;8.686;2023-04-09T02:40:15;101123.31;;;9.14;80.46
60099;BME280;62818;49.394;8.686;2023-04-09T02:41:16;101128.41;;;9.25;79.58
60099;BME280;62818;49.394;8.686;2023-04-09T02:42:16;101118.44;;;8.91;80.10
60099;BME280;62818;49.394;8.686;2023-04-09T02:43:17;101118.56;;;8.63;80.81
60099;BME280;62818;49.394;8.686;2023-04-09T02:44:17;101119.09;;;8.66;80.90
60099;BME280;62818;49.394;8.686;2023-04-09T02:45:18;101119.06;;;8.76;81.07
60099;BME280;62818;49.394;8.686;2023-04-09T02:46:18;101114.38;;;8.60;81.25
60099;BME280;62818;49.394;8.686;2023-04-09T02:47:18;101119.25;;;8.55;81.24
60099;BME280;62818;49.394;8.686;2023-04-09T02:48:19;101113.41;;;8.61;80.75
60099;BME280;62818;49.394;8.686;2023-04-09T02:49:20;101114.47;;;8.68;81.42
60099;BME280;62818;49.394;8.686;2023-04-09T02:50:20;101119.91;;;8.67;81.11
60099;BME280;62818;49.394;8.686;2023-04-09T02:51:21;101120.44;;;8.70;81.16
60099;BME280;62818;49.394;8.686;2023-04-09T02:52:21;101119.22;;;8.65;81.07
60099;BME280;62818;49.394;8.686;2023-04-09T02:53:24;101120.44;;;8.70;80.84
60099;BME280;62818;49.394;8.686;2023-04-09T02:54:25;101125.69;;;8.89;81.06
60099;BME280;62818;49.394;8.686;2023-04-09T02:55:25;101132.53;;;9.10;81.69
60099;BME280;62818;49.394;8.686;2023-04-09T02:56:26;101136.81;;;9.11;79.54
60099;BME280;62818;49.394;8.686;2023-04-09T02:57:27;101127.41;;;9.26;79.56
60099;BME280;62818;49.394;8.686;2023-04-09T02:58:27;101131.34;;;9.22;79.97
60099;BME280;62818;49.394;8.686;2023-04-09T02:59:28;101127.63;;;9.15;79.45
60099;BME280;62818;49.394;8.686;2023-04-09T03:00:28;101124.16;;;8.87;80.98
60099;BME280;62818;49.394;8.686;2023-04-09T03:01:29;101120.75;;;8.94;82.02
60099;BME280;62818;49.394;8.686;2023-04-09T03:02:29;101121.34;;;9.16;80.71
60099;BME280;62818;49.394;8.686;2023-04-09T03:03:29;101129.19;;;9.08;81.55
60099;BME280;62818;49.394;8.686;2023-04-09T03:04:30;101126.44;;;9.00;80.60
60099;BME280;62818;49.394;8.686;2023-04-09T03:05:31;101121.78;;;8.84;81.35
60099;BME280;62818;49.394;8.686;2023-04-09T03:06:31;101115.41;;;8.77;82.13
60099;BME280;62818;49.394;8.686;2023-04-09T03:07:32;101117.44;;;8.65;82.46
60099;BME280;62818;49.394;8.686;2023-04-09T03:08:32;101113.53;;;8.60;82.73
60099;BME280;62818;49.394;8.686;2023-04-09T03:09:33;101117.44;;;8.65;82.65
60099;BME280;62818;49.394;8.686;2023-04-09T03:10:33;101114.09;;;8.63;81.97
60099;BME280;62818;49.394;8.686;2023-04-09T03:11:34;101114.09;;;8.63;81.81
60099;BME280;62818;49.394;8.686;2023-04-09T03:12:34;101113.69;;;8.58;82.23
60099;BME280;62818;49.394;8.686;2023-04-09T03:13:35;101115.66;;;8.56;81.68
60099;BME280;62818;49.394;8.686;2023-04-09T03:14:35;101115.47;;;8.67;81.56
60099;BME280;62818;49.394;8.686;2023-04-09T03:15:36;101114.97;;;8.54;82.02
60099;BME280;62818;49.394;8.686;2023-04-09T03:16:36;101115.25;;;8.51;82.43
60099;BME280;62818;49.394;8.686;2023-04-09T03:17:37;101115.47;;;8.67;82.83
60099;BME280;62818;49.394;8.686;2023-04-09T03:18:38;101117.69;;;8.72;81.25
60099;BME280;62818;49.394;8.686;2023-04-09T03:19:39;101119.22;;;8.74;81.76
60099;BME280;62818;49.394;8.686;2023-04-09T03:20:39;101117.09;;;8.78;81.44
60099;BME280;62818;49.394;8.686;2023-04-09T03:21:40;101111.03;;;8.68;82.04
60099;BME280;62818;49.394;8.686;2023-04-09T03:22:40;101109.09;;;8.60;82.06
60099;BME280;62818;49.394;8.686;2023-04-09T03:23:41;101105.78;;;8.58;83.29
60099;BME280;62818;49.394;8.686;2023-04-09T03:24:41;101110.38;;;8.56;83.18
60099;BME280;62818;49.394;8.686;2023-04-09T03:25:42;101111.31;;;8.65;83.08
60099;BME280;62818;49.394;8.686;2023-04-09T03:26:42;101112.94;;;8.75;82.68
60099;BME280;62818;49.394;8.686;2023-04-09T03:27:43;101118.75;;;9.06;82.14
60099;BME280;62818;49.394;8.686;2023-04-09T03:28:43;101113.34;;;9.25;81.44
60099;BME280;62818;49.394;8.686;2023-04-09T03:29:43;101117.84;;;9.42;80.52
60099;BME280;62818;49.394;8.686;2023-04-09T03:30:44;101115.53;;;9.30;78.82
60099;BME280;62818;49.394;8.686;2023-04-09T03:31:44;101117.28;;;9.39;78.47
60099;BME280;62818;49.394;8.686;2023-04-09T03:32:45;101109.97;;;9.06;78.69
60099;BME280;62818;49.394;8.686;2023-04-09T03:33:45;101112.59;;;8.88;79.84
60099;BME280;62818;49.394;8.686;2023-04-09T03:34:46;101112.72;;;8.86;81.10
60099;BME280;62818;49.394;8.686;2023-04-09T03:35:46;101114.91;;;9.01;81.12
60099;BME280;62818;49.394;8.686;2023-04-09T03:36:47;101115.69;;;9.28;80.90
60099;BME280;62818;49.394;8.686;2023-04-09T03:37:47;101120.41;;;9.52;80.19
60099;BME280;62818;49.394;8.686;2023-04-09T03:38:48;101109.75;;;9.44;78.93
60099;BME280;62818;49.394;8.686;2023-04-09T03:39:49;101119.19;;;9.02;79.99
60099;BME280;62818;49.394;8.686;2023-04-09T03:40:49;101116.47;;;8.93;80.20
60099;BME280;62818;49.394;8.686;2023-04-09T03:41:50;101118.44;;;8.91;80.72
60099;BME280;62818;49.394;8.686;2023-04-09T03:42:50;101121.34;;;9.16;80.05
60099;BME280;62818;49.394;8.686;2023-04-09T03:43:51;101119.34;;;9.27;80.76
60099;BME280;62818;49.394;8.686;2023-04-09T03:44:54;101116.50;;;9.38;80.02
60099;BME280;62818;49.394;8.686;2023-04-09T03:45:55;101115.31;;;9.23;80.47
60099;BME280;62818;49.394;8.686;2023-04-09T03:46:55;101113.75;;;9.48;79.73
60099;BME280;62818;49.394;8.686;2023-04-09T03:47:56;101118.09;;;9.22;80.49
60099;BME280;62818;49.394;8.686;2023-04-09T03:48:56;101114.78;;;9.20;81.43
60099;BME280;62818;49.394;8.686;2023-04-09T03:49:57;101108.31;;;9.32;80.74
60099;BME280;62818;49.394;8.686;2023-04-09T03:50:57;101110.22;;;9.12;80.57
60099;BME280;62818;49.394;8.686;2023-04-09T03:51:57;101111.31;;;9.37;80.79
60099;BME280;62818;49.394;8.686;2023-04-09T03:52:58;101109.00;;;9.34;80.08
60099;BME280;62818;49.394;8.686;2023-04-09T03:53:58;101116.91;;;9.16;80.48
60099;BME280;62818;49.394;8.686;2023-04-09T03:54:59;101111.22;;;8.84;80.50
60099;BME280;62818;49.394;8.686;2023-04-09T03:56:02;101112.88;;;9.12;80.42
60099;BME280;62818;49.394;8.686;2023-04-09T03:57:03;101115.19;;;9.25;79.60
60099;BME280;62818;49.394;8.686;2023-04-09T03:58:03;101119.25;;;9.37;80.09
60099;BME280;62818;49.394;8.686;2023-04-09T03:59:04;101118.38;;;9.46;78.68
60099;BME280;62818;49.394;8.686;2023-04-09T04:00:05;101120.22;;;9.18;77.95
60099;BME280;62818;49.394;8.686;2023-04-09T04:01:06;101115.22;;;9.15;80.03
60099;BME280;62818;49.394;8.686;2023-04-09T04:02:06;101128.50;;;9.06;79.75
60099;BME280;62818;49.394;8.686;2023-04-09T04:03:07;101114.53;;;9.40;79.06
60099;BME280;62818;49.394;8.686;2023-04-09T04:04:07;101121.03;;;9.19;80.03
60099;BME280;62818;49.394;8.686;2023-04-09T04:05:08;101115.66;;;9.11;79.69
60099;BME280;62818;49.394;8.686;2023-04-09T04:06:08;101114.34;;;9.42;79.51
60099;BME280;62818;49.394;8.686;2023-04-09T04:07:09;101119.31;;;8.82;81.38
60099;BME280;62818;49.394;8.686;2023-04-09T04:08:09;101110.88;;;8.69;82.24
60099;BME280;62818;49.394;8.686;2023-04-09T04:09:10;101113.34;;;8.80;82.58
60099;BME280;62818;49.394;8.686;2023-04-09T04:10:10;101111.19;;;8.93;81.30
60099;BME280;62818;49.394;8.686;2023-04-09T04:11:11;101116.56;;;8.74;81.13
60099;BME280;62818;49.394;8.686;2023-04-09T04:12:11;101115.22;;;8.88;81.73
60099;BME280;62818;49.394;8.686;2023-04-09T04:13:12;101115.91;;;9.17;80.17
60099;BME280;62818;49.394;8.686;2023-04-09T04:14:12;101108.28;;;8.87;80.71
60099;BME280;62818;49.394;8.686;2023-04-09T04:15:13;101115.38;;;8.86;81.41
60099;BME280;62818;49.394;8.686;2023-04-09T04:16:13;101111.47;;;8.90;80.82
60099;BME280;62818;49.394;8.686;2023-04-09T04:17:14;101112.53;;;8.70;81.61
60099;BME280;62818;49.394;8.686;2023-04-09T04:18:15;101107.63;;;8.75;81.77
60099;BME280;62818;49.394;8.686;2023-04-09T04:19:15;101120.06;;;8.92;80.63
60099;BME280;62818;49.394;8.686;2023-04-09T04:20:15;101112.50;;;9.07;80.21
60099;BME280;62818;49.394;8.686;2023-04-09T04:21:16;101109.06;;;8.70;81.30
60099;BME280;62818;49.394;8.686;2023-04-09T04:22:17;101117.81;;;8.70;81.83
60099;BME280;62818;49.394;8.686;2023-04-09T04:23:17;101112.06;;;8.84;81.35
60099;BME280;62818;49.394;8.686;2023-04-09T04:24:18;101114.25;;;8.89;81.23
60099;BME280;62818;49.394;8.686;2023-04-09T04:25:18;101110.69;;;8.80;81.33
60099;BME280;62818;49.394;8.686;2023-04-09T04:26:18;101112.00;;;8.67;81.80
60099;BME280;62818;49.394;8.686;2023-04-09T04:27:19;101113.72;;;8.85;81.40
60099;BME280;62818;49.394;8.686;2023-04-09T04:28:19;101113.50;;;8.69;82.50
60099;BME280;62818;49.394;8.686;2023-04-09T04:29:20;101122.91;;;8.54;82.81
60099;BME280;62818;49.394;8.686;2023-04-09T04:30:21;101114.09;;;8.63;82.38
60099;BME280;62818;49.394;8.686;2023-04-09T04:31:21;101108.75;;;8.73;82.19
60099;BME280;62818;49.394;8.686;2023-04-09T04:32:22;101114.09;;;8.63;82.30
60099;BME280;62818;49.394;8.686;2023-04-09T04:33:22;101119.41;;;8.54;82.64
60099;BME280;62818;49.394;8.686;2023-04-09T04:34:23;101112.44;;;8.62;82.67
60099;BME280;62818;49.394;8.686;2023-04-09T04:35:23;101113.19;;;8.82;82.76
60099;BME280;62818;49.394;8.686;2023-04-09T04:36:24;101109.34;;;8.67;82.36
60099;BME280;62818;49.394;8.686;2023-04-09T04:37:25;101123.03;;;8.53;82.84
60099;BME280;62818;49.394;8.686;2023-04-09T04:38:25;101122.34;;;8.51;83.07
60099;BME280;62818;49.394;8.686;2023-04-09T04:39:26;101118.72;;;8.52;83.16
60099;BME280;62818;49.394;8.686;2023-04-09T04:40:26;101116.78;;;8.54;82.79
60099;BME280;62818;49.394;8.686;2023-04-09T04:41:27;101112.88;;;8.48;82.95
60099;BME280;62818;49.394;8.686;2023-04-09T04:42:28;101120.53;;;8.42;83.20
60099;BME280;62818;49.394;8.686;2023-04-09T04:43:29;101122.22;;;8.52;83.22
60099;BME280;62818;49.394;8.686;2023-04-09T04:44:29;101119.44;;;8.44;83.11
60099;BME280;62818;49.394;8.686;2023-04-09T04:45:30;101118.03;;;8.50;83.72
60099;BME280;62818;49.394;8.686;2023-04-09T04:46:30;101125.56;;;8.45;84.41
60099;BME280;62818;49.394;8.686;2023-04-09T04:47:31;101130.31;;;8.41;83.95
60099;BME280;62818;49.394;8.686;2023-04-09T04:48:31;101116.09;;;8.42;84.18
60099;BME280;62818;49.394;8.686;2023-04-09T04:49:32;101125.28;;;8.38;83.79
60099;BME280;62818;49.394;8.686;2023-04-09T04:50:32;101118.63;;;8.34;84.38
60099;BME280;62818;49.394;8.686;2023-04-09T04:51:33;101130.84;;;8.35;84.25
60099;BME280;62818;49.394;8.686;2023-04-09T04:52:33;101120.19;;;8.27;84.99
60099;BME280;62818;49.394;8.686;2023-04-09T04:53:34;101119.75;;;8.41;85.23
60099;BME280;62818;49.394;8.686;2023-04-09T04:54:34;101115.31;;;8.32;84.98
60099;BME280;62818;49.394;8.686;2023-04-09T04:55:35;101123.50;;;8.29;85.23
60099;BME280;62818;49.394;8.686;2023-04-09T04:56:36;101120.88;;;8.29;85.64
60099;BME280;62818;49.394;8.686;2023-04-09T04:57:36;101124.50;;;8.28;85.78
60099;BME280;62818;49.394;8.686;2023-04-09T04:58:36;101130.47;;;8.30;85.02
60099;BME280;62818;49.394;8.686;2023-04-09T04:59:38;101121.97;;;8.36;85.27
60099;BME280;62818;49.394;8.686;2023-04-09T05:00:39;101130.31;;;8.41;84.81
60099;BME280;62818;49.394;8.686;2023-04-09T05:01:40;101130.16;;;8.33;85.40
60099;BME280;62818;49.394;8.686;2023-04-09T05:02:40;101124.50;;;8.28;85.93
60099;BME280;62818;49.394;8.686;2023-04-09T05:03:41;101123.50;;;8.29;85.42
60099;BME280;62818;49.394;8.686;2023-04-09T05:04:41;101123.91;;;8.34;85.31
60099;BME280;62818;49.394;8.686;2023-04-09T05:05:42;101124.06;;;8.33;85.22
60099;BME280;62818;49.394;8.686;2023-04-09T05:06:42;101130.16;;;8.33;85.25
60099;BME280;62818;49.394;8.686;2023-04-09T05:07:43;101128.53;;;8.32;85.70
60099;BME280;62818;49.394;8.686;2023-04-09T05:08:43;101129.22;;;8.34;85.43
60099;BME280;62818;49.394;8.686;2023-04-09T05:09:44;101136.13;;;8.35;85.40
60099;BME280;62818;49.394;8.686;2023-04-09T05:10:45;101131.28;;;8.40;85.20
60099;BME280;62818;49.394;8.686;2023-04-09T05:11:46;101131.53;;;8.37;85.71
60099;BME280;62818;49.394;8.686;2023-04-09T05:12:46;101132.69;;;8.35;85.45
60099;BME280;62818;49.394;8.686;2023-04-09T05:13:46;101134.75;;;8.31;85.47
60099;BME280;62818;49.394;8.686;2023-04-09T05:14:50;101124.19;;;8.41;85.64
60099;BME280;62818;49.394;8.686;2023-04-09T05:15:51;101138.22;;;8.41;85.75
60099;BME280;62818;49.394;8.686;2023-04-09T05:16:51;101128.03;;;8.46;85.79
60099;BME280;62818;49.394;8.686;2023-04-09T05:17:52;101125.28;;;8.38;85.93
60099;BME280;62818;49.394;8.686;2023-04-09T05:18:53;101126.25;;;8.37;85.76
60099;BME280;62818;49.394;8.686;2023-04-09T05:19:53;101132.53;;;8.36;85.55
60099;BME280;62818;49.394;8.686;2023-04-09T05:20:54;101130.31;;;8.41;86.00
60099;BME280;62818;49.394;8.686;2023-04-09T05:21:54;101118.50;;;8.36;86.38
60099;BME280;62818;49.394;8.686;2023-04-09T05:22:55;101124.75;;;8.35;86.85
60099;BME280;62818;49.394;8.686;2023-04-09T05:23:56;101127.50;;;8.43;86.04
60099;BME280;62818;49.394;8.686;2023-04-09T05:24:57;101130.00;;;8.44;86.61
60099;BME280;62818;49.394;8.686;2023-04-09T05:25:57;101126.09;;;8.48;85.57
60099;BME280;62818;49.394;8.686;2023-04-09T05:27:01;101128.34;;;8.43;85.67
60099;BME280;62818;49.394;8.686;2023-04-09T05:28:01;101129.16;;;8.53;85.35
60099;BME280;62818;49.394;8.686;2023-04-09T05:29:02;101120.09;;;8.56;85.74
60099;BME280;62818;49.394;8.686;2023-04-09T05:30:02;101132.38;;;8.47;85.70
60099;BME280;62818;49.394;8.686;2023-04-09T05:31:03;101131.13;;;8.42;86.00
60099;BME280;62818;49.394;8.686;2023-04-09T05:32:04;101134.50;;;8.34;86.35
60099;BME280;62818;49.394;8.686;2023-04-09T05:33:05;101124.28;;;8.49;86.39
60099;BME280;62818;49.394;8.686;2023-04-09T05:34:06;101128.19;;;8.54;86.31
60099;BME280;62818;49.394;8.686;2023-04-09T05:35:07;101129.63;;;8.39;86.27
60099;BME280;62818;49.394;8.686;2023-04-09T05:36:08;101131.94;;;8.42;86.72
60099;BME280;62818;49.394;8.686;2023-04-09T05:37:16;101125.56;;;8.45;86.28
60099;BME280;62818;49.394;8.686;2023-04-09T05:38:17;101132.78;;;8.52;86.22
60099;BME280;62818;49.394;8.686;2023-04-09T05:39:17;101129.72;;;8.47;86.31